createdAt,value
2022-09-26T00:05:28.130Z,99656.19
2022-09-26T00:16:13.070Z,99647.70
2022-09-26T00:27:09.813Z,99636.38
2022-09-26T00:38:17.115Z,99627.30
2022-09-26T00:49:43.710Z,99616.02
2022-09-26T01:00:50.805Z,99622.48
2022-09-26T01:11:52.987Z,99622.23
2022-09-26T01:22:52.859Z,99616.61
2022-09-26T01:34:26.365Z,99602.59
2022-09-26T01:45:31.307Z,99598.60
2022-09-26T01:56:22.721Z,99590.22
2022-09-26T02:07:33.609Z,99598.22
2022-09-26T02:18:38.830Z,99591.13
2022-09-26T02:29:07.670Z,99586.56
2022-09-26T02:40:05.821Z,99583.94
2022-09-26T02:51:15.077Z,99579.64
2022-09-26T03:02:18.581Z,99584.46
2022-09-26T03:13:35.299Z,99576.21
2022-09-26T03:25:00.686Z,99571.64
2022-09-26T03:36:09.176Z,99565.77
2022-09-26T03:46:40.423Z,99546.45
2022-09-26T03:57:47.510Z,99545.64
2022-09-26T04:09:01.933Z,99545.99
2022-09-26T04:20:18.466Z,99543.33
2022-09-26T04:31:41.594Z,99548.83
2022-09-26T04:42:42.829Z,99538.45
2022-09-26T04:53:50.896Z,99533.23
2022-09-26T05:04:59.933Z,99529.10
2022-09-26T05:15:32.843Z,99529.83
2022-09-26T05:26:42.427Z,99521.67
2022-09-26T05:37:12.342Z,99521.61
2022-09-26T05:48:07.349Z,99509.52
2022-09-26T05:58:56.593Z,99498.03
2022-09-26T06:10:05.219Z,99505.35
2022-09-26T06:20:57.878Z,99509.59
2022-09-26T06:31:36.390Z,99508.70
2022-09-26T06:42:56.961Z,99509.69
2022-09-26T06:54:14.218Z,99506.36
2022-09-26T07:05:07.441Z,99514.96
2022-09-26T07:15:51.694Z,99521.41
2022-09-26T07:27:04.831Z,99515.38
2022-09-26T07:38:05.116Z,99510.29
2022-09-26T07:48:53.954Z,99508.50
2022-09-26T07:59:54.398Z,99507.08
2022-09-26T08:10:49.077Z,99501.92
2022-09-26T08:21:37.532Z,99493.71
2022-09-26T08:32:30.481Z,99490.40
2022-09-26T08:43:40.643Z,99483.35
2022-09-26T08:54:24.643Z,99479.73
2022-09-26T09:05:00.033Z,99473.42
2022-09-26T09:16:11.145Z,99457.62
2022-09-26T09:38:18.445Z,99446.70
2022-09-26T09:48:38.775Z,99442.60
2022-09-26T09:59:29.265Z,99431.90
2022-09-26T10:10:14.410Z,99432.68
2022-09-26T10:21:09.608Z,99433.25
2022-09-26T10:31:43.327Z,99423.60
2022-09-26T10:42:09.918Z,99413.60
2022-09-26T10:52:27.099Z,99415.30
2022-09-26T11:02:57.122Z,99418.06
2022-09-26T11:13:45.189Z,99413.30
2022-09-26T11:24:42.970Z,99405.83
2022-09-26T11:34:54.476Z,99394.35
2022-09-26T11:45:42.830Z,99380.77
2022-09-26T11:57:49.220Z,99375.86
2022-09-26T12:08:30.264Z,99368.13
2022-09-26T12:19:00.271Z,99355.81
2022-09-26T12:29:45.574Z,99346.29
2022-09-26T12:40:24.685Z,99336.80
2022-09-26T12:50:57.753Z,99331.46
2022-09-26T13:01:47.775Z,99319.86
2022-09-26T13:12:08.492Z,99308.40
2022-09-26T13:22:40.062Z,99304.92
2022-09-26T13:32:55.957Z,99303.11
2022-09-26T13:43:07.646Z,99292.31
2022-09-26T13:54:14.360Z,99281.83
2022-09-26T14:04:41.113Z,99271.11
2022-09-26T14:15:16.366Z,99275.19
2022-09-26T14:26:08.701Z,99264.05
2022-09-26T14:36:55.953Z,99259.02
2022-09-26T14:47:09.769Z,99263.88
2022-09-26T14:57:31.773Z,99255.86
2022-09-26T15:08:00.681Z,99256.97
2022-09-26T15:18:26.739Z,99268.60
2022-09-26T15:28:39.006Z,99274.02
2022-09-26T15:39:50.820Z,99271.95
2022-09-26T15:50:56.304Z,99271.62
2022-09-26T16:01:51.961Z,99272.41
2022-09-26T16:12:36.843Z,99270.20
2022-09-26T16:23:34.429Z,99266.23
2022-09-26T16:33:50.401Z,99261.64
2022-09-26T16:44:23.284Z,99262.30
2022-09-26T16:54:28.880Z,99265.77
2022-09-26T17:04:41.799Z,99268.14
2022-09-26T17:15:07.881Z,99263.01
2022-09-26T17:25:36.143Z,99260.04
2022-09-26T17:36:23.458Z,99258.95
2022-09-26T17:46:48.478Z,99266.63
2022-09-26T17:58:08.187Z,99280.30
2022-09-26T18:19:52.388Z,99290.57
2022-09-26T18:31:00.468Z,99295.46
2022-09-26T18:41:57.253Z,99287.44
2022-09-26T18:52:35.694Z,99279.54
2022-09-26T19:02:49.479Z,99271.70
2022-09-26T19:13:15.817Z,99264.23
2022-09-26T19:35:58.704Z,99250.94
2022-09-26T19:46:38.645Z,99251.91
2022-09-26T19:56:48.334Z,99251.20
2022-09-26T20:06:58.639Z,99254.66
2022-09-26T20:17:37.145Z,99245.83
2022-09-26T20:28:00.237Z,99240.11
2022-09-26T20:38:32.187Z,99239.09
2022-09-26T20:49:10.169Z,99231.00
2022-09-26T20:59:41.751Z,99225.29
2022-09-26T21:10:40.186Z,99224.10
2022-09-26T21:20:51.563Z,99214.67
2022-09-26T21:32:04.828Z,99205.36
2022-09-26T21:42:47.157Z,99196.11
2022-09-26T21:53:40.626Z,99190.16
2022-09-26T22:04:15.652Z,99184.44
2022-09-26T22:14:41.845Z,99178.40
2022-09-26T22:25:02.585Z,99179.09
2022-09-26T22:35:16.661Z,99174.94
2022-09-26T22:46:23.210Z,99160.51
2022-09-26T22:57:05.400Z,99151.55
2022-09-26T23:07:32.009Z,99144.84
2022-09-26T23:18:42.004Z,99140.67
2022-09-26T23:29:22.362Z,99134.52
2022-09-26T23:40:04.805Z,99128.66
2022-09-26T23:50:34.036Z,99122.23
